Tuesday, October 16, 2018, 10:33 AM GMT
Back to Local

CWIS, Charlevoix CS , Que.

Location: , , Canada Lat: 47.283
Local Time: 10:33 AM GMT (10:33 GMT) Lon: -70.633
Time Zone: GMT Elev: 2358 ft

Show me the last for .
Show Coded

Time T Td Feel RH Dir Speed Gust Alt SLP Vis Weather Sky Remarks
2018-10-16 10:00 30 27 16 88 290° 12 25 - 29.39 0 Peak wind: 31 mph (27 kts) from 290° at 47 min
2018-10-16 09:00 30 29 16 97 260° 12 24 - 29.38 0 Peak wind: 24 mph (21 kts) from 220° at 52 min
1-hr Precip Total: 0.05"
2018-10-16 08:00 31 30 19 97 230° 8 18 - 29.38 0 Peak wind: 28 mph (25 kts) from 220° at 02 min
2018-10-16 07:00 32 31 21 96 250° 7 17 - 29.40 0 Peak wind: 26 mph (23 kts) from 220° at 13 min
1-hr Precip Total: 0.02"
2018-10-16 06:00 34 32 21 91 250° 13 24 - 29.38 0 Peak wind: 28 mph (25 kts) from 280° at 22 min
1-hr Precip Total: 0.06"
2018-10-16 05:00 40 39 30 96 240° 8 20 - 29.36 0 Peak wind: 24 mph (21 kts) from 230° at 19 min
1-hr Precip Total: 0.04"
2018-10-16 04:00 42 41 32 97 230° 9 22 - 29.39 0 Peak wind: 23 mph (20 kts) from 250° at 45 min
2018-10-16 03:00 42 42 33 99 240° 8 22 - 29.43 0 Peak wind: 23 mph (20 kts) from 230° at 41 min
2018-10-16 02:00 40 42 35 106 250° 7 - - 29.45 0 None
2018-10-16 01:00 40 40 37 99 240° 5 - - 29.47 0 1-hr Precip Total: 0.07"
2018-10-16 00:00 38 40 34 106 210° 6 - - 29.51 0 1-hr Precip Total: 0.05"
2018-10-15 23:00 40 40 35 98 200° 7 - - 29.56 0 1-hr Precip Total: 0.07"
2018-10-15 22:00 39 39 36 98 180° 5 - - 29.62 0 Pressure falling rapidly
1-hr Precip Total: 0.06"
2018-10-15 21:00 39 38 34 97 180° 6 - - 29.70 0 1-hr Precip Total: 0.02"
2018-10-15 20:00 40 36 36 85 190° 7 - - 29.75 0 None
2018-10-15 19:00 45 34 42 65 190° 6 - - 29.80 0 None
2018-10-15 18:00 45 35 41 68 180° 7 - - 29.84 0 None
2018-10-15 17:00 45 35 41 69 190° 7 - - 29.89 0 None
2018-10-15 16:00 43 35 39 72 210° 7 - - 29.93 0 None
2018-10-15 15:00 41 35 36 79 200° 7 - - 29.98 0 None
2018-10-15 14:00 40 36 36 85 210° 7 - - 30.02 0 None
2018-10-15 13:00 38 36 33 91 210° 6 - - 30.05 0 None
2018-10-15 12:00 35 35 31 99 210° 5 - - 30.06 0 None
2018-10-15 11:00 36 34 - 91 190° 2 - - 30.06 0 None

Support USWX by starting your Amazon purchase here.